Williamsport, Maryland
Current Conditions -  °F | °C
As of 2:53 PM on Wednesday 26 Nov 2014 (Local Time) from KHGR Reporting Station
Light Snow Light Snow  
Wind Chill: 28°   Ceiling: 300
Heat Index: 34°   Visibility: 1mi
Dew Point: 32°   Wind: 7mph
Humidity: 92%   Direction: 350°N
Pressure: 29.94"   Gusts: NA
Location:  39.6°N, 77.82°W
Report Text: KHGR 261953Z 35006KT 1SM -SN BR OVC003 01/00 A2994 RMK AO2 SLP153 P0005 T00110000
Loading
Personal Weather Stations






























Interactive Weather Map New forecast layout! Learn more

10-Day Weather Forecast

Advertisements
Track Severe Weather on mobile